createdAt,value
2018-04-11T00:01:18.887Z,100042
2018-04-11T00:03:47.367Z,100031
2018-04-11T00:06:15.719Z,100052
2018-04-11T00:08:44.107Z,100035
2018-04-11T00:11:12.284Z,100035
2018-04-11T00:13:40.506Z,100045
2018-04-11T00:16:08.632Z,100028
2018-04-11T00:18:36.948Z,100034
2018-04-11T00:21:05.033Z,100042
2018-04-11T00:23:33.437Z,100027
2018-04-11T00:26:01.764Z,100025
2018-04-11T00:28:30.175Z,100026
2018-04-11T00:30:58.562Z,100014
2018-04-11T00:33:26.940Z,100017
2018-04-11T00:35:55.313Z,100023
2018-04-11T00:38:23.682Z,100030
2018-04-11T00:40:52.023Z,100022
2018-04-11T00:43:20.118Z,100024
2018-04-11T00:45:48.385Z,100025
2018-04-11T00:48:16.673Z,100017
2018-04-11T00:50:44.974Z,100023
2018-04-11T00:53:25.017Z,100019
2018-04-11T00:55:53.385Z,100024
2018-04-11T00:58:21.725Z,100026
2018-04-11T01:00:49.831Z,100036
2018-04-11T01:03:18.209Z,100029
2018-04-11T01:05:46.547Z,100022
2018-04-11T01:08:14.666Z,100021
2018-04-11T01:10:43.054Z,100015
2018-04-11T01:13:11.418Z,100018
2018-04-11T01:15:39.783Z,100009
2018-04-11T01:18:07.864Z,100007
2018-04-11T01:20:36.247Z,100008
2018-04-11T01:23:04.327Z,100018
2018-04-11T01:25:32.408Z,100004
2018-04-11T01:28:00.789Z,100011
2018-04-11T01:30:28.879Z,100023
2018-04-11T01:32:57.204Z,100015
2018-04-11T01:35:25.673Z,100033
2018-04-11T01:37:53.952Z,100025
2018-04-11T01:40:22.192Z,100023
2018-04-11T01:42:50.312Z,100030
2018-04-11T01:45:18.628Z,100027
2018-04-11T01:47:46.774Z,100012
2018-04-11T01:50:15.065Z,100015
2018-04-11T01:52:43.223Z,100011
2018-04-11T01:55:11.623Z,100031
2018-04-11T01:57:39.957Z,100058
2018-04-11T02:00:08.061Z,100052
2018-04-11T02:02:36.171Z,100052
2018-04-11T02:05:04.490Z,100055
2018-04-11T02:07:32.595Z,100061
2018-04-11T02:10:00.931Z,100051
2018-04-11T02:12:29.038Z,100056
2018-04-11T02:14:57.403Z,100047
2018-04-11T02:17:25.843Z,100041
2018-04-11T02:19:53.918Z,100037
2018-04-11T02:22:22.217Z,100040
2018-04-11T02:24:50.676Z,100043
2018-04-11T02:27:18.985Z,100036
2018-04-11T02:29:47.270Z,100028
2018-04-11T02:32:15.439Z,100042
2018-04-11T02:34:43.730Z,100054
2018-04-11T02:37:11.818Z,100062
2018-04-11T02:39:39.936Z,100049
2018-04-11T02:42:08.596Z,100063
2018-04-11T02:44:36.689Z,100065
2018-04-11T02:47:04.879Z,100068
2018-04-11T02:49:33.023Z,100066
2018-04-11T02:52:01.524Z,100076
2018-04-11T02:54:29.591Z,100076
2018-04-11T02:56:57.975Z,100075
2018-04-11T02:59:26.054Z,100064
2018-04-11T03:01:54.426Z,100049
2018-04-11T03:04:22.792Z,100058
2018-04-11T03:06:50.896Z,100058
2018-04-11T03:09:19.241Z,100049
2018-04-11T03:11:47.633Z,100057
2018-04-11T03:14:15.738Z,100058
2018-04-11T03:16:44.082Z,100057
2018-04-11T03:19:12.249Z,100052
2018-04-11T03:21:40.342Z,100042
2018-04-11T03:24:08.703Z,100056
2018-04-11T03:26:37.095Z,100060
2018-04-11T03:29:05.174Z,100066
2018-04-11T03:31:33.457Z,100068
2018-04-11T03:34:01.534Z,100077
2018-04-11T03:36:29.894Z,100088
2018-04-11T03:38:58.031Z,100082
2018-04-11T03:41:26.447Z,100070
2018-04-11T03:43:54.746Z,100093
2018-04-11T03:46:22.832Z,100077
2018-04-11T03:48:50.933Z,100084
2018-04-11T03:51:19.322Z,100069
2018-04-11T03:53:47.682Z,100065
2018-04-11T03:56:16.158Z,100063
2018-04-11T03:58:44.349Z,100063
2018-04-11T04:01:12.533Z,100063
2018-04-11T04:03:40.891Z,100076
2018-04-11T04:06:09.268Z,100080
2018-04-11T04:08:37.639Z,100084
2018-04-11T04:11:06.022Z,100078
2018-04-11T04:13:45.863Z,100085
2018-04-11T04:16:25.858Z,100091
2018-04-11T04:19:05.814Z,100074
2018-04-11T04:21:33.882Z,100082
2018-04-11T04:24:01.965Z,100086
2018-04-11T04:26:30.082Z,100082
2018-04-11T04:28:58.153Z,100090
2018-04-11T04:31:26.426Z,100089
2018-04-11T04:33:54.614Z,100102
2018-04-11T04:36:22.798Z,100113
2018-04-11T04:38:51.107Z,100109
2018-04-11T04:41:19.479Z,100111
2018-04-11T04:43:47.600Z,100101
2018-04-11T04:46:15.999Z,100108
2018-04-11T04:48:44.297Z,100104
2018-04-11T04:51:12.414Z,100114
2018-04-11T04:53:40.849Z,100120
2018-04-11T04:56:08.974Z,100115
2018-04-11T04:58:37.370Z,100104
2018-04-11T05:01:05.650Z,100114
2018-04-11T05:03:33.863Z,100108
2018-04-11T05:06:02.197Z,100106
2018-04-11T05:08:30.374Z,100119
2018-04-11T05:10:58.695Z,100115
2018-04-11T05:13:27.043Z,100110
2018-04-11T05:15:55.308Z,100113
2018-04-11T05:18:23.514Z,100118
2018-04-11T05:20:51.772Z,100115
2018-04-11T05:23:20.066Z,100096
2018-04-11T05:25:48.221Z,100105
2018-04-11T05:28:16.758Z,100100
2018-04-11T05:30:45.814Z,100116
2018-04-11T05:33:14.435Z,100124
2018-04-11T05:35:42.622Z,100131
2018-04-11T05:38:10.903Z,100131
2018-04-11T05:40:39.094Z,100141
2018-04-11T05:43:07.455Z,100137
2018-04-11T05:45:35.884Z,100146
2018-04-11T05:48:04.024Z,100146
2018-04-11T05:50:32.217Z,100143
2018-04-11T05:53:00.341Z,100139
2018-04-11T05:55:28.800Z,100155
2018-04-11T05:57:56.926Z,100157
2018-04-11T06:00:25.005Z,100165
2018-04-11T06:02:54.155Z,100172
2018-04-11T06:05:22.421Z,100171
2018-04-11T06:07:50.877Z,100160
2018-04-11T06:10:19.254Z,100162
2018-04-11T06:12:47.702Z,100157
2018-04-11T06:15:15.980Z,100156
2018-04-11T06:17:44.220Z,100162
2018-04-11T06:20:12.627Z,100168
2018-04-11T06:22:41.030Z,100167
2018-04-11T06:25:09.373Z,100173
2018-04-11T06:27:38.359Z,100180
2018-04-11T06:30:06.855Z,100181
2018-04-11T06:32:34.943Z,100179
2018-04-11T06:35:03.236Z,100181
2018-04-11T06:37:31.522Z,100186
2018-04-11T06:39:59.656Z,100189
2018-04-11T06:42:28.041Z,100181
2018-04-11T06:44:56.632Z,100180
2018-04-11T06:47:25.752Z,100184
2018-04-11T06:49:54.391Z,100179
2018-04-11T06:52:22.679Z,100179
2018-04-11T06:54:51.365Z,100201
2018-04-11T06:57:19.772Z,100189
2018-04-11T06:59:47.934Z,100177
2018-04-11T07:02:16.591Z,100185
2018-04-11T07:04:44.818Z,100177
2018-04-11T07:07:13.075Z,100196
2018-04-11T07:09:41.429Z,100186
2018-04-11T07:12:10.038Z,100180
2018-04-11T07:14:38.622Z,100184
2018-04-11T07:17:06.774Z,100202
2018-04-11T07:19:35.849Z,100191
2018-04-11T07:22:04.052Z,100208
2018-04-11T07:24:32.777Z,100213
2018-04-11T07:27:00.965Z,100196
2018-04-11T07:29:29.249Z,100196
2018-04-11T07:31:57.750Z,100213
2018-04-11T07:34:26.731Z,100220
2018-04-11T07:36:55.046Z,100211
2018-04-11T07:39:23.490Z,100206
2018-04-11T07:41:52.135Z,100207
2018-04-11T07:44:20.536Z,100201
2018-04-11T07:46:48.881Z,100207
2018-04-11T07:49:17.009Z,100209
2018-04-11T07:51:45.314Z,100213
2018-04-11T07:54:13.637Z,100202
2018-04-11T07:56:42.412Z,100202
2018-04-11T07:59:10.768Z,100206
2018-04-11T08:01:39.178Z,100203
2018-04-11T08:04:07.301Z,100222
2018-04-11T08:06:35.670Z,100214
2018-04-11T08:09:03.923Z,100207
2018-04-11T08:11:32.062Z,100208
2018-04-11T08:14:00.259Z,100206
2018-04-11T08:16:28.574Z,100200
2018-04-11T08:18:56.820Z,100203
2018-04-11T08:21:25.302Z,100190
2018-04-11T08:23:53.086Z,100194
2018-04-11T08:26:21.442Z,100192
2018-04-11T08:28:49.927Z,100196
2018-04-11T08:31:18.243Z,100188
2018-04-11T08:33:47.338Z,100204
2018-04-11T08:36:15.623Z,100192
2018-04-11T08:38:44.430Z,100197
2018-04-11T08:41:12.786Z,100196
2018-04-11T08:43:41.512Z,100192
2018-04-11T08:46:09.979Z,100186
2018-04-11T08:48:38.297Z,100181
2018-04-11T08:51:06.579Z,100185
2018-04-11T08:53:34.698Z,100173
2018-04-11T08:56:03.256Z,100184
2018-04-11T08:58:31.893Z,100195
2018-04-11T09:01:00.297Z,100199
2018-04-11T09:03:29.189Z,100203
2018-04-11T09:05:57.348Z,100196
2018-04-11T09:08:25.766Z,100201
2018-04-11T09:10:54.067Z,100199
2018-04-11T09:13:22.417Z,100201
2018-04-11T09:15:50.856Z,100205
2018-04-11T09:18:19.506Z,100200
2018-04-11T09:20:48.039Z,100195
2018-04-11T09:23:16.476Z,100190
2018-04-11T09:25:44.894Z,100184
2018-04-11T09:28:13.435Z,100190
2018-04-11T09:30:41.663Z,100186
2018-04-11T09:33:10.088Z,100191
2018-04-11T09:35:38.504Z,100188
2018-04-11T09:38:07.171Z,100195
2018-04-11T09:40:35.368Z,100195
2018-04-11T09:43:03.547Z,100204
2018-04-11T09:45:31.994Z,100198
2018-04-11T09:48:00.314Z,100191
2018-04-11T09:50:28.580Z,100187
2018-04-11T09:52:56.953Z,100192
2018-04-11T09:55:25.382Z,100190
2018-04-11T09:57:53.560Z,100190
2018-04-11T10:00:21.749Z,100192
2018-04-11T10:02:56.059Z,100196
2018-04-11T10:05:24.669Z,100198
2018-04-11T10:07:53.546Z,100193
2018-04-11T10:10:21.920Z,100191
2018-04-11T10:12:50.144Z,100189
2018-04-11T10:15:18.388Z,100194
2018-04-11T10:17:46.655Z,100195
2018-04-11T10:20:15.128Z,100195
2018-04-11T10:22:43.370Z,100190
2018-04-11T10:25:11.580Z,100195
2018-04-11T10:27:39.887Z,100195
2018-04-11T10:30:08.119Z,100189
2018-04-11T10:32:36.318Z,100184
2018-04-11T10:35:04.940Z,100188
2018-04-11T10:37:33.220Z,100187
2018-04-11T10:40:01.653Z,100174
2018-04-11T10:42:29.916Z,100178
2018-04-11T10:44:58.348Z,100170
2018-04-11T10:47:26.581Z,100181
2018-04-11T10:49:54.689Z,100175
2018-04-11T10:52:22.815Z,100171
2018-04-11T10:54:51.499Z,100182
2018-04-11T10:57:20.389Z,100189
2018-04-11T10:59:49.032Z,100181
2018-04-11T11:02:17.203Z,100180
2018-04-11T11:04:45.624Z,100176
2018-04-11T11:07:14.310Z,100178
2018-04-11T11:09:42.526Z,100181
2018-04-11T11:12:10.968Z,100185
2018-04-11T11:14:39.477Z,100183
2018-04-11T11:17:07.902Z,100188
2018-04-11T11:19:36.400Z,100188
2018-04-11T11:22:05.821Z,100181
2018-04-11T11:24:34.111Z,100192
2018-04-11T11:27:02.497Z,100184
2018-04-11T11:29:30.874Z,100184
2018-04-11T11:31:59.526Z,100200
2018-04-11T11:34:27.748Z,100195
2018-04-11T11:36:56.024Z,100198
2018-04-11T11:39:24.240Z,100196
2018-04-11T11:41:52.590Z,100188
2018-04-11T11:44:20.906Z,100183
2018-04-11T11:46:49.279Z,100180
2018-04-11T11:49:17.375Z,100184
2018-04-11T11:51:45.784Z,100176
2018-04-11T11:54:14.158Z,100170
2018-04-11T11:56:42.477Z,100167
2018-04-11T11:59:10.867Z,100176
2018-04-11T12:01:39.080Z,100181
2018-04-11T12:04:07.462Z,100173
2018-04-11T12:06:35.716Z,100171
2018-04-11T12:09:04.024Z,100174
2018-04-11T12:11:32.268Z,100178
2018-04-11T12:14:00.430Z,100171
2018-04-11T12:16:29.151Z,100172
2018-04-11T12:18:57.516Z,100174
2018-04-11T12:21:25.904Z,100166
2018-04-11T12:23:54.729Z,100159
2018-04-11T12:26:23.248Z,100159
2018-04-11T12:28:51.745Z,100165
2018-04-11T12:31:19.872Z,100166
2018-04-11T12:33:48.010Z,100169
2018-04-11T12:36:16.421Z,100147
2018-04-11T12:38:44.526Z,100156
2018-04-11T12:41:12.875Z,100167
2018-04-11T12:43:41.068Z,100162
2018-04-11T12:46:09.171Z,100163
2018-04-11T12:48:37.378Z,100174
2018-04-11T12:51:05.530Z,100162
2018-04-11T12:53:33.839Z,100172
2018-04-11T12:56:01.971Z,100166
2018-04-11T12:58:30.528Z,100162
2018-04-11T13:00:59.996Z,100164
2018-04-11T13:03:27.720Z,100171
2018-04-11T13:05:56.070Z,100169
2018-04-11T13:08:24.230Z,100159
2018-04-11T13:10:52.314Z,100151
2018-04-11T13:13:20.985Z,100144
2018-04-11T13:15:49.363Z,100142
2018-04-11T13:18:17.728Z,100141
2018-04-11T13:20:45.827Z,100128
2018-04-11T13:23:14.090Z,100126
2018-04-11T13:25:42.516Z,100127
2018-04-11T13:28:10.943Z,100123
2018-04-11T13:30:39.140Z,100108
2018-04-11T13:33:07.631Z,100105
2018-04-11T13:35:35.987Z,100099
2018-04-11T13:38:04.140Z,100100
2018-04-11T13:40:32.457Z,100097
2018-04-11T13:43:00.917Z,100098
2018-04-11T13:45:29.284Z,100095
2018-04-11T13:47:57.597Z,100083
2018-04-11T13:50:26.173Z,100087
2018-04-11T13:52:54.287Z,100091
2018-04-11T13:55:23.124Z,100078
2018-04-11T13:57:51.407Z,100094
2018-04-11T14:00:19.717Z,100092
2018-04-11T14:02:47.819Z,100093
2018-04-11T14:05:15.958Z,100085
2018-04-11T14:07:44.376Z,100080
2018-04-11T14:10:12.484Z,100073
2018-04-11T14:12:40.830Z,100078
2018-04-11T14:15:09.131Z,100079
2018-04-11T14:17:37.279Z,100065
2018-04-11T14:20:05.657Z,100082
2018-04-11T14:22:34.036Z,100067
2018-04-11T14:25:02.154Z,100073
2018-04-11T14:27:30.406Z,100074
2018-04-11T14:29:58.756Z,100069
2018-04-11T14:32:27.117Z,100082
2018-04-11T14:34:55.220Z,100081
2018-04-11T14:37:23.562Z,100076
2018-04-11T14:39:52.210Z,100078
2018-04-11T14:42:20.341Z,100064
2018-04-11T14:44:48.810Z,100068
2018-04-11T14:47:17.209Z,100062
2018-04-11T14:49:45.551Z,100060
2018-04-11T14:52:14.143Z,100051
2018-04-11T14:54:42.255Z,100053
2018-04-11T14:57:10.781Z,100055
2018-04-11T14:59:39.386Z,100059
2018-04-11T15:02:07.712Z,100061
2018-04-11T15:04:36.241Z,100058
2018-04-11T15:07:04.387Z,100055
2018-04-11T15:09:32.547Z,100051
2018-04-11T15:12:00.993Z,100059
2018-04-11T15:14:29.218Z,100051
2018-04-11T15:16:57.582Z,100054
2018-04-11T15:19:25.769Z,100054
2018-04-11T15:21:54.138Z,100052
2018-04-11T15:24:22.492Z,100058
2018-04-11T15:26:50.946Z,100067
2018-04-11T15:29:19.530Z,100064
2018-04-11T15:31:48.271Z,100060
2018-04-11T15:34:16.594Z,100059
2018-04-11T15:36:44.905Z,100065
2018-04-11T15:39:13.317Z,100055
2018-04-11T15:41:41.645Z,100058
2018-04-11T15:44:10.049Z,100059
2018-04-11T15:46:38.388Z,100052
2018-04-11T15:49:06.901Z,100052
2018-04-11T15:51:35.176Z,100049
2018-04-11T15:54:03.680Z,100048
2018-04-11T15:56:31.908Z,100051
2018-04-11T15:59:00.878Z,100047
2018-04-11T16:01:29.009Z,100058
2018-04-11T16:03:57.117Z,100062
2018-04-11T16:06:25.240Z,100078
2018-04-11T16:08:54.014Z,100085
2018-04-11T16:11:22.268Z,100082
2018-04-11T16:13:50.481Z,100090
2018-04-11T16:16:18.928Z,100101
2018-04-11T16:18:47.034Z,100099
2018-04-11T16:21:15.409Z,100104
2018-04-11T16:23:43.547Z,100104
2018-04-11T16:26:11.927Z,100095
2018-04-11T16:28:40.228Z,100098
2018-04-11T16:31:08.587Z,100101
2018-04-11T16:33:36.763Z,100105
2018-04-11T16:36:05.055Z,100109
2018-04-11T16:38:33.450Z,100121
2018-04-11T16:41:01.669Z,100126
2018-04-11T16:43:29.776Z,100116
2018-04-11T16:45:58.028Z,100107
2018-04-11T16:48:26.381Z,100104
2018-04-11T16:50:54.507Z,100100
2018-04-11T16:53:23.006Z,100102
2018-04-11T16:55:51.413Z,100119
2018-04-11T16:58:19.522Z,100114
2018-04-11T17:00:47.891Z,100112
2018-04-11T17:03:15.979Z,100105
2018-04-11T17:05:44.403Z,100100
2018-04-11T17:08:12.783Z,100105
2018-04-11T17:10:40.935Z,100104
2018-04-11T17:13:09.190Z,100110
2018-04-11T17:15:37.298Z,100116
2018-04-11T17:18:05.601Z,100126
2018-04-11T17:20:45.479Z,100134
2018-04-11T17:23:25.397Z,100140
2018-04-11T17:26:05.436Z,100138
2018-04-11T17:28:45.272Z,100138
2018-04-11T17:31:18.881Z,100124
2018-04-11T17:33:47.366Z,100106
2018-04-11T17:36:15.842Z,100112
2018-04-11T17:38:44.257Z,100110
2018-04-11T17:41:13.716Z,100105
2018-04-11T17:43:42.304Z,100112
2018-04-11T17:46:10.641Z,100100
2018-04-11T17:48:38.940Z,100101
2018-04-11T17:51:07.038Z,100116
2018-04-11T17:53:35.151Z,100110
2018-04-11T17:56:05.602Z,100104
2018-04-11T17:58:34.044Z,100104
2018-04-11T18:01:02.414Z,100104
2018-04-11T18:03:30.544Z,100092
2018-04-11T18:05:58.873Z,100100
2018-04-11T18:08:27.262Z,100102
2018-04-11T18:10:55.667Z,100104
2018-04-11T18:13:23.992Z,100104
2018-04-11T18:15:52.367Z,100114
2018-04-11T18:18:20.435Z,100120
2018-04-11T18:20:48.634Z,100121
2018-04-11T18:23:16.870Z,100125
2018-04-11T18:25:44.967Z,100133
2018-04-11T18:28:13.332Z,100135
2018-04-11T18:30:41.419Z,100143
2018-04-11T18:33:09.527Z,100142
2018-04-11T18:35:37.638Z,100147
2018-04-11T18:38:05.821Z,100150
2018-04-11T18:40:33.967Z,100147
2018-04-11T18:43:02.254Z,100164
2018-04-11T18:45:30.683Z,100156
2018-04-11T18:47:58.986Z,100157
2018-04-11T18:50:27.126Z,100181
2018-04-11T18:52:55.277Z,100182
2018-04-11T18:55:23.969Z,100183
2018-04-11T18:57:52.056Z,100194
2018-04-11T19:00:20.181Z,100201
2018-04-11T19:02:48.432Z,100200
2018-04-11T19:05:16.639Z,100209
2018-04-11T19:07:44.938Z,100228
2018-04-11T19:10:13.056Z,100223
2018-04-11T19:12:44.865Z,100249
2018-04-11T19:15:14.078Z,100254
2018-04-11T19:17:46.085Z,100246
2018-04-11T19:20:19.245Z,100248
2018-04-11T19:22:47.561Z,100238
2018-04-11T19:25:23.009Z,100246
2018-04-11T19:27:51.351Z,100241
2018-04-11T19:30:19.645Z,100235
2018-04-11T19:32:47.807Z,100234
2018-04-11T19:35:16.452Z,100236
2018-04-11T19:37:44.885Z,100236
2018-04-11T19:40:13.176Z,100219
2018-04-11T19:42:41.381Z,100222
2018-04-11T19:45:09.606Z,100209
2018-04-11T19:47:38.082Z,100204
2018-04-11T19:50:07.060Z,100197
2018-04-11T19:52:35.406Z,100194
2018-04-11T19:55:04.747Z,100174
2018-04-11T19:57:32.976Z,100166
2018-04-11T20:00:01.176Z,100153
2018-04-11T20:02:29.545Z,100141
2018-04-11T20:04:57.915Z,100128
2018-04-11T20:07:26.281Z,100124
2018-04-11T20:09:54.458Z,100099
2018-04-11T20:12:22.870Z,100058
2018-04-11T20:14:51.025Z,100050
2018-04-11T20:17:19.245Z,100080
2018-04-11T20:19:47.469Z,100113
2018-04-11T20:22:16.293Z,100106
2018-04-11T20:24:44.381Z,100114
2018-04-11T20:27:12.512Z,100129
2018-04-11T20:29:40.901Z,100113
2018-04-11T20:32:09.192Z,100105
2018-04-11T20:34:38.553Z,100116
2018-04-11T20:37:06.883Z,100121
2018-04-11T20:39:35.005Z,100124
2018-04-11T20:42:03.144Z,100117
2018-04-11T20:44:31.362Z,100131
2018-04-11T20:46:59.674Z,100122
2018-04-11T20:49:27.834Z,100127
2018-04-11T20:51:56.131Z,100138
2018-04-11T20:54:24.381Z,100131
2018-04-11T20:56:52.652Z,100117
2018-04-11T20:59:20.749Z,100125
2018-04-11T21:01:48.863Z,100138
2018-04-11T21:04:16.946Z,100139
2018-04-11T21:06:45.185Z,100142
2018-04-11T21:09:13.424Z,100148
2018-04-11T21:11:41.630Z,100156
2018-04-11T21:14:09.823Z,100148
2018-04-11T21:16:38.075Z,100139
2018-04-11T21:19:06.364Z,100145
2018-04-11T21:21:34.487Z,100121
2018-04-11T21:24:02.861Z,100117
2018-04-11T21:26:30.974Z,100118
2018-04-11T21:28:59.226Z,100113
2018-04-11T21:31:27.608Z,100098
2018-04-11T21:33:55.957Z,100098
2018-04-11T21:36:24.335Z,100125
2018-04-11T21:38:52.717Z,100086
2018-04-11T21:41:20.847Z,100096
2018-04-11T21:43:49.192Z,100078
2018-04-11T21:46:17.639Z,100061
2018-04-11T21:48:45.999Z,100043
2018-04-11T21:51:14.173Z,100007
2018-04-11T21:53:42.316Z,100027
2018-04-11T21:56:10.427Z,100027
2018-04-11T21:58:38.524Z,100056
2018-04-11T22:01:07.213Z,100063
2018-04-11T22:03:35.377Z,100063
2018-04-11T22:09:03.275Z,100069
2018-04-11T22:11:31.672Z,100057
2018-04-11T22:13:59.793Z,100040
2018-04-11T22:16:27.980Z,100060
2018-04-11T22:18:56.344Z,100068
2018-04-11T22:21:24.697Z,100068
2018-04-11T22:23:52.831Z,100062
2018-04-11T22:26:20.957Z,100057
2018-04-11T22:28:49.262Z,100040
2018-04-11T22:31:17.365Z,100054
2018-04-11T22:33:45.773Z,100041
2018-04-11T22:36:13.908Z,100056
2018-04-11T22:38:42.242Z,100065
2018-04-11T22:41:10.706Z,100070
2018-04-11T22:43:38.940Z,100078
2018-04-11T22:46:07.088Z,100060
2018-04-11T22:48:35.420Z,100079
2018-04-11T22:51:03.543Z,100075
2018-04-11T22:53:31.671Z,100076
2018-04-11T22:56:00.290Z,100045
2018-04-11T22:58:28.703Z,100047
2018-04-11T23:00:56.976Z,100024
2018-04-11T23:03:25.331Z,100024
2018-04-11T23:05:53.429Z,100025
2018-04-11T23:08:21.781Z,99999
2018-04-11T23:10:50.148Z,99987
2018-04-11T23:13:18.454Z,99983
2018-04-11T23:15:46.584Z,99982
2018-04-11T23:18:14.929Z,100010
2018-04-11T23:20:43.063Z,100008
2018-04-11T23:23:11.400Z,99990
2018-04-11T23:25:39.481Z,99987
2018-04-11T23:28:07.875Z,99991
2018-04-11T23:30:36.321Z,99972
2018-04-11T23:33:04.443Z,99982
2018-04-11T23:35:32.530Z,99993
2018-04-11T23:38:00.693Z,99977
2018-04-11T23:40:28.919Z,99982
2018-04-11T23:42:57.218Z,99975
2018-04-11T23:45:25.593Z,99953
2018-04-11T23:47:54.554Z,99964
2018-04-11T23:50:22.672Z,99953
2018-04-11T23:52:51.060Z,99970
2018-04-11T23:55:19.175Z,99974
2018-04-11T23:57:47.288Z,99959
